createdAt,value
2023-03-13T00:00:48.400Z,98639.09
2023-03-13T00:01:53.134Z,98632.75
2023-03-13T00:03:06.166Z,98633.00
2023-03-13T00:04:09.633Z,98634.91
2023-03-13T00:05:15.304Z,98635.47
2023-03-13T00:06:18.975Z,98645.41
2023-03-13T00:07:23.048Z,98644.94
2023-03-13T00:08:33.524Z,98646.09
2023-03-13T00:09:37.144Z,98644.06
2023-03-13T00:10:45.198Z,98648.34
2023-03-13T00:11:48.092Z,98651.59
2023-03-13T00:12:51.855Z,98649.69
2023-03-13T00:13:58.540Z,98658.97
2023-03-13T00:15:02.547Z,98651.16
2023-03-13T00:16:19.555Z,98655.25
2023-03-13T00:17:22.686Z,98659.88
2023-03-13T00:18:27.361Z,98662.91
2023-03-13T00:19:32.124Z,98665.19
2023-03-13T00:20:36.116Z,98657.72
2023-03-13T00:21:43.188Z,98661.22
2023-03-13T00:22:48.367Z,98667.78
2023-03-13T00:23:55.144Z,98661.69
2023-03-13T00:24:59.469Z,98675.22
2023-03-13T00:26:12.300Z,98673.88
2023-03-13T00:27:20.805Z,98677.59
2023-03-13T00:28:28.989Z,98677.28
2023-03-13T00:29:34.390Z,98682.66
2023-03-13T00:30:38.169Z,98681.88
2023-03-13T00:31:42.084Z,98685.84
2023-03-13T00:32:49.531Z,98685.63
2023-03-13T00:33:55.702Z,98685.16
2023-03-13T00:35:00.087Z,98683.81
2023-03-13T00:36:08.440Z,98691.03
2023-03-13T00:37:11.182Z,98688.66
2023-03-13T00:38:14.843Z,98693.44
2023-03-13T00:39:18.000Z,98698.84
2023-03-13T00:40:26.111Z,98702.13
2023-03-13T00:41:31.487Z,98693.31
2023-03-13T00:42:36.558Z,98705.16
2023-03-13T00:43:44.400Z,98696.56
2023-03-13T00:44:47.447Z,98696.38
2023-03-13T00:45:53.200Z,98695.34
2023-03-13T00:46:56.211Z,98691.84
2023-03-13T00:48:01.693Z,98698.84
2023-03-13T00:49:09.177Z,98698.25
2023-03-13T00:50:15.216Z,98698.03
2023-03-13T00:51:23.834Z,98704.81
2023-03-13T00:52:29.384Z,98701.75
2023-03-13T00:53:32.362Z,98717.34
2023-03-13T00:54:36.593Z,98719.03
2023-03-13T00:55:39.423Z,98718.09
2023-03-13T00:56:48.076Z,98728.69
2023-03-13T00:57:56.883Z,98728.81
2023-03-13T00:59:01.695Z,98738.25
2023-03-13T01:00:10.472Z,98739.47
2023-03-13T01:01:28.435Z,98736.63
2023-03-13T01:02:34.253Z,98737.53
2023-03-13T01:03:39.080Z,98733.94
2023-03-13T01:04:45.966Z,98746.25
2023-03-13T01:06:03.480Z,98740.94
2023-03-13T01:07:06.815Z,98747.28
2023-03-13T01:08:09.960Z,98738.91
2023-03-13T01:09:16.234Z,98746.16
2023-03-13T01:10:23.669Z,98743.56
2023-03-13T01:11:29.870Z,98748.88
2023-03-13T01:12:33.847Z,98757.69
2023-03-13T01:13:38.232Z,98757.00
2023-03-13T01:14:42.137Z,98757.44
2023-03-13T01:15:45.721Z,98757.94
2023-03-13T01:16:50.240Z,98757.22
2023-03-13T01:17:55.243Z,98762.66
2023-03-13T01:19:06.627Z,98769.59
2023-03-13T01:20:12.993Z,98760.34
2023-03-13T01:21:20.215Z,98769.34
2023-03-13T01:22:24.482Z,98777.03
2023-03-13T01:23:33.809Z,98769.59
2023-03-13T01:24:39.827Z,98773.56
2023-03-13T01:25:43.413Z,98771.19
2023-03-13T01:26:47.761Z,98778.06
2023-03-13T01:27:51.742Z,98782.28
2023-03-13T01:28:59.104Z,98786.34
2023-03-13T01:30:03.911Z,98787.88
2023-03-13T01:31:16.531Z,98788.00
2023-03-13T01:32:20.035Z,98786.03
2023-03-13T01:33:23.784Z,98795.75
2023-03-13T01:34:27.525Z,98797.00
2023-03-13T01:35:36.050Z,98802.03
2023-03-13T01:36:39.508Z,98807.59
2023-03-13T01:37:42.810Z,98799.94
2023-03-13T01:38:54.562Z,98817.03
2023-03-13T01:39:57.517Z,98809.84
2023-03-13T01:41:00.873Z,98813.44
2023-03-13T01:42:06.749Z,98814.72
2023-03-13T01:43:27.315Z,98817.25
2023-03-13T01:44:55.925Z,98815.25
2023-03-13T01:46:05.220Z,98820.94
2023-03-13T01:47:19.549Z,98827.00
2023-03-13T01:48:43.182Z,98830.84
2023-03-13T01:49:49.889Z,98829.00
2023-03-13T01:51:12.254Z,98823.44
2023-03-13T01:52:24.017Z,98838.75
2023-03-13T01:53:36.052Z,98843.88
2023-03-13T01:54:46.344Z,98843.97
2023-03-13T01:55:53.633Z,98835.53
2023-03-13T01:57:02.477Z,98846.38
2023-03-13T01:58:08.200Z,98843.31
2023-03-13T01:59:15.869Z,98848.53
2023-03-13T02:00:30.588Z,98859.47
2023-03-13T02:01:34.646Z,98856.09
2023-03-13T02:02:49.109Z,98851.16
2023-03-13T02:03:54.041Z,98859.66
2023-03-13T02:05:01.679Z,98860.75
2023-03-13T02:06:07.601Z,98862.50
2023-03-13T02:07:17.697Z,98864.72
2023-03-13T02:08:26.242Z,98869.22
2023-03-13T02:09:33.095Z,98867.91
2023-03-13T02:10:46.727Z,98874.91
2023-03-13T02:12:02.890Z,98878.72
2023-03-13T02:13:07.818Z,98885.09
2023-03-13T02:14:13.474Z,98884.44
2023-03-13T02:15:21.804Z,98888.25
2023-03-13T02:16:26.207Z,98889.56
2023-03-13T02:17:30.695Z,98878.72
2023-03-13T02:18:41.059Z,98892.75
2023-03-13T02:19:54.796Z,98889.56
2023-03-13T02:21:12.106Z,98892.44
2023-03-13T02:22:32.300Z,98892.63
2023-03-13T02:23:52.362Z,98897.84
2023-03-13T02:25:25.066Z,98900.63
2023-03-13T02:26:35.916Z,98909.22
2023-03-13T02:27:45.827Z,98912.19
2023-03-13T02:28:51.004Z,98911.41
2023-03-13T02:29:55.452Z,98920.78
2023-03-13T02:30:59.717Z,98920.66
2023-03-13T02:32:03.910Z,98920.16
2023-03-13T02:33:07.705Z,98922.41
2023-03-13T02:34:13.106Z,98916.69
2023-03-13T02:35:20.202Z,98923.84
2023-03-13T02:36:24.161Z,98931.28
2023-03-13T02:37:33.826Z,98925.13
2023-03-13T02:38:54.538Z,98938.28
2023-03-13T02:40:04.013Z,98931.94
2023-03-13T02:41:10.104Z,98935.47
2023-03-13T02:42:16.480Z,98939.44
2023-03-13T02:43:31.586Z,98936.25
2023-03-13T02:44:45.194Z,98934.84
2023-03-13T02:46:06.482Z,98947.34
2023-03-13T02:47:12.537Z,98950.38
2023-03-13T02:48:15.829Z,98949.91
2023-03-13T02:49:25.279Z,98945.28
2023-03-13T02:50:29.910Z,98951.50
2023-03-13T02:51:41.809Z,98951.69
2023-03-13T02:52:56.587Z,98954.38
2023-03-13T02:54:09.804Z,98950.53
2023-03-13T02:55:25.643Z,98953.88
2023-03-13T02:56:34.167Z,98957.25
2023-03-13T02:57:37.243Z,98962.34
2023-03-13T02:58:49.847Z,98954.56
2023-03-13T02:59:59.643Z,98966.31
2023-03-13T03:01:08.700Z,98967.91
2023-03-13T03:02:14.611Z,98962.50
2023-03-13T03:03:18.694Z,98963.16
2023-03-13T03:04:25.249Z,98970.78
2023-03-13T03:05:32.346Z,98973.00
2023-03-13T03:06:39.162Z,98969.19
2023-03-13T03:07:44.785Z,98974.59
2023-03-13T03:08:48.221Z,98971.88
2023-03-13T03:09:55.588Z,98979.19
2023-03-13T03:10:59.226Z,98983.31
2023-03-13T03:12:02.955Z,98980.16
2023-03-13T03:13:06.918Z,98988.88
2023-03-13T03:14:12.769Z,98989.84
2023-03-13T03:15:21.642Z,98990.03
2023-03-13T03:16:25.413Z,98989.53
2023-03-13T03:17:29.555Z,98988.44
2023-03-13T03:18:34.661Z,98991.13
2023-03-13T03:19:44.000Z,98990.47
2023-03-13T03:20:47.052Z,98987.63
2023-03-13T03:21:50.399Z,98986.34
2023-03-13T03:22:55.483Z,98991.59
2023-03-13T03:23:58.629Z,98992.69
2023-03-13T03:25:01.980Z,99001.13
2023-03-13T03:26:07.927Z,99002.25
2023-03-13T03:27:12.082Z,99006.06
2023-03-13T03:28:23.145Z,98997.81
2023-03-13T03:29:26.013Z,99013.06
2023-03-13T03:30:31.119Z,99008.28
2023-03-13T03:31:36.387Z,99008.78
2023-03-13T03:32:41.915Z,99005.59
2023-03-13T03:33:45.019Z,99016.88
2023-03-13T03:34:53.949Z,99009.22
2023-03-13T03:36:07.025Z,99013.22
2023-03-13T03:37:10.768Z,99019.88
2023-03-13T03:38:18.532Z,99022.28
2023-03-13T03:39:24.318Z,99018.78
2023-03-13T03:40:29.011Z,99025.94
2023-03-13T03:41:36.410Z,99019.88
2023-03-13T03:42:40.215Z,99029.59
2023-03-13T03:43:43.559Z,99021.97
2023-03-13T03:44:48.998Z,99029.59
2023-03-13T03:45:53.470Z,99031.69
2023-03-13T03:46:57.509Z,99032.13
2023-03-13T03:48:03.056Z,99039.13
2023-03-13T03:49:07.038Z,99037.69
2023-03-13T03:50:12.211Z,99035.94
2023-03-13T03:51:24.542Z,99035.50
2023-03-13T03:52:27.706Z,99034.06
2023-03-13T03:53:33.556Z,99042.00
2023-03-13T03:54:36.735Z,99034.69
2023-03-13T03:55:40.725Z,99042.94
2023-03-13T03:56:44.468Z,99043.59
2023-03-13T03:57:47.223Z,99036.09
2023-03-13T03:58:56.489Z,99039.78
2023-03-13T04:00:15.993Z,99048.06
2023-03-13T04:01:28.100Z,99044.69
2023-03-13T04:02:31.989Z,99044.88
2023-03-13T04:03:36.277Z,99048.38
2023-03-13T04:04:40.017Z,99050.44
2023-03-13T04:05:50.231Z,99050.25
2023-03-13T04:06:54.341Z,99053.13
2023-03-13T04:08:01.605Z,99053.47
2023-03-13T04:09:05.377Z,99056.50
2023-03-13T04:10:09.559Z,99057.44
2023-03-13T04:11:18.717Z,99060.28
2023-03-13T04:12:26.687Z,99055.66
2023-03-13T04:13:33.789Z,99053.63
2023-03-13T04:14:40.480Z,99060.13
2023-03-13T04:15:49.009Z,99068.25
2023-03-13T04:16:55.434Z,99066.66
2023-03-13T04:17:58.877Z,99064.25
2023-03-13T04:19:05.138Z,99066.66
2023-03-13T04:20:11.426Z,99077.31
2023-03-13T04:21:15.511Z,99078.41
2023-03-13T04:22:36.228Z,99070.94
2023-03-13T04:23:40.506Z,99074.59
2023-03-13T04:24:43.742Z,99077.31
2023-03-13T04:25:46.420Z,99077.91
2023-03-13T04:26:50.952Z,99080.00
2023-03-13T04:27:53.898Z,99084.31
2023-03-13T04:29:01.540Z,99092.56
2023-03-13T04:30:20.824Z,99089.22
2023-03-13T04:31:42.491Z,99092.75
2023-03-13T04:33:06.519Z,99090.97
2023-03-13T04:34:27.839Z,99088.13
2023-03-13T04:35:43.478Z,99097.03
2023-03-13T04:37:26.266Z,99099.41
2023-03-13T04:38:42.544Z,99101.19
2023-03-13T04:40:00.730Z,99106.09
2023-03-13T04:41:21.947Z,99104.66
2023-03-13T04:42:42.603Z,99111.03
2023-03-13T04:43:56.409Z,99114.53
2023-03-13T04:45:22.438Z,99115.34
2023-03-13T04:46:27.255Z,99112.63
2023-03-13T04:47:49.719Z,99121.88
2023-03-13T04:49:17.927Z,99125.19
2023-03-13T04:50:49.055Z,99136.16
2023-03-13T04:52:07.033Z,99135.84
2023-03-13T04:53:30.928Z,99148.09
2023-03-13T04:54:41.038Z,99146.53
2023-03-13T04:55:53.493Z,99155.56
2023-03-13T04:57:13.841Z,99153.00
2023-03-13T04:58:44.966Z,99158.28
2023-03-13T05:00:06.806Z,99153.41
2023-03-13T05:01:19.627Z,99159.53
2023-03-13T05:02:38.532Z,99152.22
2023-03-13T05:04:04.013Z,99159.91
2023-03-13T05:05:30.155Z,99160.25
2023-03-13T05:08:18.885Z,99166.25
2023-03-13T05:09:51.233Z,99180.50
2023-03-13T05:11:15.406Z,99172.16
2023-03-13T05:12:50.714Z,99174.31
2023-03-13T05:14:16.112Z,99175.56
2023-03-13T05:15:58.960Z,99192.13
2023-03-13T05:17:43.213Z,99189.41
2023-03-13T05:19:07.418Z,99196.53
2023-03-13T05:20:36.065Z,99196.34
2023-03-13T05:22:05.754Z,99204.28
2023-03-13T05:23:35.136Z,99202.34
2023-03-13T05:26:56.146Z,99202.91
2023-03-13T05:28:30.660Z,99216.16
2023-03-13T05:30:03.869Z,99209.91
2023-03-13T05:31:45.842Z,99211.91
2023-03-13T05:36:41.571Z,99224.13
2023-03-13T05:41:15.293Z,99226.34
2023-03-13T06:24:56.341Z,99248.69
2023-03-13T06:26:31.785Z,99256.75
2023-03-13T06:27:47.781Z,99257.97
2023-03-13T06:29:03.082Z,99258.88
2023-03-13T06:32:37.566Z,99259.34
2023-03-13T06:34:03.958Z,99254.94
2023-03-13T06:35:15.597Z,99263.66
2023-03-13T07:51:42.556Z,99389.38
2023-03-13T07:52:45.890Z,99397.09
2023-03-13T07:53:47.944Z,99400.25
2023-03-13T07:54:50.182Z,99394.56
2023-03-13T07:55:54.111Z,99390.16
2023-03-13T07:56:58.454Z,99391.84
2023-03-13T07:58:00.345Z,99392.03
2023-03-13T07:59:02.403Z,99402.06
2023-03-13T08:00:06.879Z,99398.66
2023-03-13T08:01:19.135Z,99394.31
2023-03-13T08:02:21.254Z,99393.44
2023-03-13T08:03:24.415Z,99395.59
2023-03-13T08:04:26.637Z,99402.94
2023-03-13T08:05:28.887Z,99397.63
2023-03-13T08:06:34.219Z,99398.28
2023-03-13T08:07:37.405Z,99386.59
2023-03-13T08:08:47.675Z,99397.28
2023-03-13T08:10:01.663Z,99392.59
2023-03-13T08:11:13.385Z,99400.13
2023-03-13T08:12:15.592Z,99394.22
2023-03-13T08:13:26.119Z,99403.16
2023-03-13T08:14:59.279Z,99408.66
2023-03-13T08:16:11.463Z,99405.09
2023-03-13T08:17:16.719Z,99398.88
2023-03-13T08:18:19.896Z,99409.47
2023-03-13T08:20:15.817Z,99407.06
2023-03-13T08:21:23.029Z,99398.56
2023-03-13T08:22:25.350Z,99401.28
2023-03-13T08:23:28.032Z,99405.22
2023-03-13T08:24:33.500Z,99412.19
2023-03-13T08:25:40.047Z,99411.81
2023-03-13T08:26:44.020Z,99415.72
2023-03-13T08:27:47.358Z,99410.50
2023-03-13T08:28:57.477Z,99409.88
2023-03-13T08:30:03.021Z,99411.97
2023-03-13T08:31:17.344Z,99415.53
2023-03-13T08:32:20.083Z,99408.63
2023-03-13T08:33:23.890Z,99408.16
2023-03-13T08:34:26.606Z,99414.84
2023-03-13T08:35:31.193Z,99410.97
2023-03-13T08:36:35.883Z,99416.16
2023-03-13T08:37:42.294Z,99411.72
2023-03-13T08:38:50.771Z,99416.25
2023-03-13T08:39:56.507Z,99410.69
2023-03-13T08:40:59.641Z,99410.81
2023-03-13T08:42:03.216Z,99419.88
2023-03-13T08:43:08.157Z,99410.75
2023-03-13T08:44:16.923Z,99412.25
2023-03-13T08:45:19.517Z,99420.06
2023-03-13T08:46:23.843Z,99413.09
2023-03-13T08:47:26.793Z,99424.84
2023-03-13T08:48:32.294Z,99421.53
2023-03-13T08:49:35.535Z,99417.97
2023-03-13T08:50:37.736Z,99427.75
2023-03-13T08:51:41.272Z,99433.81
2023-03-13T08:52:47.041Z,99429.47
2023-03-13T08:53:50.350Z,99423.09
2023-03-13T08:54:54.980Z,99427.16
2023-03-13T08:55:59.832Z,99428.63
2023-03-13T08:58:32.733Z,99435.22
2023-03-13T08:59:35.915Z,99437.25
2023-03-13T09:00:40.194Z,99440.31
2023-03-13T09:01:44.335Z,99448.31
2023-03-13T09:02:47.008Z,99444.34
2023-03-13T09:03:49.662Z,99449.28
2023-03-13T09:04:53.748Z,99445.09
2023-03-13T09:05:58.950Z,99447.84
2023-03-13T09:07:05.800Z,99446.44
2023-03-13T09:08:12.011Z,99464.59
2023-03-13T09:09:15.059Z,99453.66
2023-03-13T09:10:18.562Z,99446.28
2023-03-13T09:11:24.441Z,99443.47
2023-03-13T09:12:33.965Z,99454.97
2023-03-13T09:13:39.904Z,99455.38
2023-03-13T09:14:45.423Z,99451.06
2023-03-13T09:15:55.556Z,99450.31
2023-03-13T09:16:59.680Z,99458.13
2023-03-13T09:18:03.992Z,99455.38
2023-03-13T09:19:07.249Z,99457.25
2023-03-13T09:20:14.012Z,99459.13
2023-03-13T09:21:27.855Z,99454.16
2023-03-13T09:22:32.199Z,99465.34
2023-03-13T09:23:36.736Z,99463.81
2023-03-13T09:24:42.460Z,99464.41
2023-03-13T09:25:46.146Z,99470.88
2023-03-13T09:27:00.676Z,99471.44
2023-03-13T09:28:04.824Z,99474.34
2023-03-13T09:29:07.631Z,99475.44
2023-03-13T09:30:13.391Z,99478.38
2023-03-13T09:31:19.710Z,99474.22
2023-03-13T09:32:24.492Z,99470.28
2023-03-13T09:33:27.869Z,99471.72
2023-03-13T09:34:32.561Z,99476.78
2023-03-13T09:35:39.981Z,99478.69
2023-03-13T09:36:45.708Z,99475.47
2023-03-13T09:37:50.678Z,99490.06
2023-03-13T09:38:59.816Z,99481.03
2023-03-13T09:40:08.712Z,99483.41
2023-03-13T09:41:37.097Z,99473.25
2023-03-13T09:42:50.769Z,99481.84
2023-03-13T09:44:15.287Z,99483.59
2023-03-13T09:45:33.080Z,99480.75
2023-03-13T09:46:46.347Z,99478.28
2023-03-13T09:48:13.496Z,99482.56
2023-03-13T09:49:41.321Z,99499.41
2023-03-13T09:51:13.897Z,99474.47
2023-03-13T09:52:23.536Z,99489.63
2023-03-13T09:53:40.819Z,99491.09
2023-03-13T09:54:50.255Z,99500.88
2023-03-13T09:55:54.901Z,99487.94
2023-03-13T09:57:13.909Z,99498.19
2023-03-13T09:58:23.713Z,99500.78
2023-03-13T09:59:29.560Z,99495.09
2023-03-13T10:00:36.921Z,99492.63
2023-03-13T10:01:42.709Z,99495.41
2023-03-13T10:02:53.889Z,99495.78
2023-03-13T10:04:09.165Z,99497.41
2023-03-13T10:05:27.201Z,99499.31
2023-03-13T10:06:49.058Z,99509.09
2023-03-13T10:07:56.852Z,99499.69
2023-03-13T10:09:02.221Z,99479.59
2023-03-13T10:10:17.966Z,99496.16
2023-03-13T10:11:35.427Z,99506.47
2023-03-13T10:12:52.643Z,99503.75
2023-03-13T10:14:04.481Z,99501.38
2023-03-13T10:15:37.385Z,99501.69
2023-03-13T10:16:48.668Z,99502.03
2023-03-13T10:17:54.167Z,99507.09
2023-03-13T10:19:09.699Z,99522.41
2023-03-13T10:20:25.832Z,99503.16
2023-03-13T10:21:36.715Z,99509.59
2023-03-13T10:22:50.793Z,99520.75
2023-03-13T10:24:04.174Z,99516.34
2023-03-13T10:25:28.363Z,99520.06
2023-03-13T10:26:37.900Z,99518.66
2023-03-13T10:27:50.890Z,99530.22
2023-03-13T10:28:55.644Z,99526.19
2023-03-13T10:30:00.075Z,99512.91
2023-03-13T10:31:33.684Z,99518.81
2023-03-13T10:32:37.240Z,99526.13
2023-03-13T10:33:40.972Z,99512.94
2023-03-13T10:34:58.071Z,99517.78
2023-03-13T10:36:07.361Z,99526.38
2023-03-13T10:37:12.453Z,99531.13
2023-03-13T10:38:24.015Z,99531.56
2023-03-13T10:39:30.299Z,99530.00
2023-03-13T10:40:35.290Z,99530.69
2023-03-13T10:41:39.256Z,99528.84
2023-03-13T10:42:46.234Z,99533.41
2023-03-13T10:43:55.767Z,99546.94
2023-03-13T10:45:04.194Z,99537.03
2023-03-13T10:46:12.277Z,99547.97
2023-03-13T10:47:16.369Z,99541.03
2023-03-13T10:48:27.485Z,99547.97
2023-03-13T10:49:32.723Z,99547.03
2023-03-13T10:50:40.492Z,99544.09
2023-03-13T10:51:55.206Z,99542.38
2023-03-13T10:53:18.586Z,99543.84
2023-03-13T10:54:38.106Z,99542.94
2023-03-13T10:55:44.846Z,99552.41
2023-03-13T10:57:20.354Z,99566.13
2023-03-13T10:58:33.717Z,99549.69
2023-03-13T10:59:44.398Z,99556.63
2023-03-13T11:00:49.485Z,99552.47
2023-03-13T11:01:58.718Z,99556.69
2023-03-13T11:03:05.648Z,99579.81
2023-03-13T11:04:29.827Z,99572.06
2023-03-13T11:05:43.324Z,99566.59
2023-03-13T11:06:55.966Z,99566.34
2023-03-13T11:08:13.240Z,99568.44
2023-03-13T11:09:17.976Z,99565.91
2023-03-13T11:10:32.753Z,99566.16
2023-03-13T11:11:51.178Z,99572.53
2023-03-13T11:12:56.506Z,99579.34
2023-03-13T11:14:14.247Z,99588.41
2023-03-13T11:15:21.292Z,99581.94
2023-03-13T11:16:29.029Z,99592.75
2023-03-13T11:17:37.928Z,99591.59
2023-03-13T11:18:46.136Z,99595.00
2023-03-13T11:20:23.898Z,99595.91
2023-03-13T11:21:54.817Z,99592.25
2023-03-13T11:23:24.803Z,99598.22
2023-03-13T11:24:42.152Z,99609.00
2023-03-13T11:25:59.672Z,99605.97
2023-03-13T11:27:16.592Z,99611.63
2023-03-13T11:28:42.589Z,99609.25
2023-03-13T11:29:56.825Z,99612.06
2023-03-13T11:31:23.615Z,99608.56
2023-03-13T11:32:43.366Z,99608.88
2023-03-13T11:33:57.667Z,99611.84
2023-03-13T11:35:07.701Z,99611.63
2023-03-13T11:36:25.830Z,99617.06
2023-03-13T11:37:32.609Z,99617.66
2023-03-13T11:38:42.769Z,99609.00
2023-03-13T11:39:58.583Z,99621.09
2023-03-13T11:41:15.854Z,99615.94
2023-03-13T11:42:24.261Z,99621.88
2023-03-13T11:43:57.210Z,99623.91
2023-03-13T11:44:59.383Z,99624.38
2023-03-13T11:46:16.203Z,99623.91
2023-03-13T11:47:50.459Z,99628.47
2023-03-13T11:49:52.275Z,99627.34
2023-03-13T11:51:13.609Z,99629.16
2023-03-13T11:52:19.087Z,99629.19
2023-03-13T11:53:27.660Z,99636.19
2023-03-13T11:55:04.196Z,99640.16
2023-03-13T11:56:13.755Z,99627.44
2023-03-13T11:58:00.280Z,99648.69
2023-03-13T11:59:02.310Z,99635.50
2023-03-13T12:00:31.643Z,99637.91
2023-03-13T12:01:42.633Z,99641.00
2023-03-13T12:03:17.681Z,99638.50
2023-03-13T12:04:44.620Z,99644.19
2023-03-13T12:05:59.341Z,99641.00
2023-03-13T12:07:50.452Z,99641.22
2023-03-13T12:09:10.491Z,99646.00
2023-03-13T12:10:36.882Z,99640.63
2023-03-13T12:12:06.358Z,99657.78
2023-03-13T12:13:20.915Z,99665.66
2023-03-13T12:14:29.178Z,99664.69
2023-03-13T12:15:51.870Z,99665.72
2023-03-13T12:17:00.274Z,99669.13
2023-03-13T12:18:18.147Z,99675.00
2023-03-13T12:19:30.974Z,99672.00
2023-03-13T12:20:59.256Z,99672.00
2023-03-13T12:22:34.533Z,99681.03
2023-03-13T12:23:40.041Z,99669.56
2023-03-13T12:24:54.136Z,99668.91
2023-03-13T12:26:12.251Z,99680.28
2023-03-13T12:27:49.762Z,99666.19
2023-03-13T12:28:55.306Z,99673.81
2023-03-13T12:30:06.531Z,99667.53
2023-03-13T12:31:38.018Z,99666.47
2023-03-13T12:33:03.836Z,99659.84
2023-03-13T12:34:32.357Z,99660.19
2023-03-13T12:35:36.793Z,99673.09
2023-03-13T12:36:46.926Z,99666.78
2023-03-13T12:38:26.488Z,99660.94
2023-03-13T12:39:50.539Z,99671.19
2023-03-13T12:41:08.883Z,99669.75
2023-03-13T12:42:32.325Z,99677.75
2023-03-13T12:43:40.154Z,99670.97
2023-03-13T12:44:43.283Z,99678.16
2023-03-13T12:45:58.626Z,99670.53
2023-03-13T12:47:33.379Z,99679.97
2023-03-13T12:49:20.231Z,99683.22
2023-03-13T12:50:42.727Z,99680.00
2023-03-13T12:51:54.069Z,99687.06
2023-03-13T12:53:19.060Z,99690.53
2023-03-13T12:54:44.059Z,99687.16
2023-03-13T12:56:11.207Z,99697.28
2023-03-13T12:57:19.990Z,99703.09
2023-03-13T12:58:52.039Z,99687.75
2023-03-13T13:00:00.371Z,99694.22
2023-03-13T13:01:06.630Z,99691.91
2023-03-13T13:02:30.811Z,99689.13
2023-03-13T13:03:47.671Z,99693.75
2023-03-13T13:04:52.180Z,99692.63
2023-03-13T13:06:03.050Z,99700.75
2023-03-13T13:07:19.881Z,99697.41
2023-03-13T13:08:27.018Z,99702.59
2023-03-13T13:09:48.172Z,99697.00
2023-03-13T13:10:50.244Z,99689.03
2023-03-13T13:11:55.490Z,99695.44
2023-03-13T13:13:16.336Z,99695.56
2023-03-13T13:14:18.458Z,99690.75
2023-03-13T13:15:26.692Z,99700.41
2023-03-13T13:16:30.115Z,99691.00
2023-03-13T13:17:54.253Z,99696.25
2023-03-13T13:19:24.618Z,99700.41
2023-03-13T13:20:26.746Z,99694.16
2023-03-13T13:21:31.205Z,99702.06
2023-03-13T13:22:38.816Z,99703.13
2023-03-13T13:23:46.982Z,99697.03
2023-03-13T13:24:52.259Z,99701.09
2023-03-13T13:25:56.988Z,99706.81
2023-03-13T13:26:59.166Z,99706.94
2023-03-13T13:28:18.341Z,99713.47
2023-03-13T13:29:20.971Z,99704.38
2023-03-13T13:30:24.050Z,99707.56
2023-03-13T13:31:50.923Z,99704.81
2023-03-13T13:32:54.888Z,99716.16
2023-03-13T13:33:58.416Z,99718.59
2023-03-13T13:35:19.103Z,99705.00
2023-03-13T13:36:24.216Z,99712.31
2023-03-13T13:37:31.668Z,99711.72
2023-03-13T13:38:38.124Z,99712.16
2023-03-13T13:39:50.415Z,99713.88
2023-03-13T13:41:05.634Z,99708.69
2023-03-13T13:42:32.584Z,99720.59
2023-03-13T13:43:37.109Z,99710.03
2023-03-13T13:45:17.510Z,99725.53
2023-03-13T13:46:33.893Z,99714.09
2023-03-13T13:47:36.030Z,99714.66
2023-03-13T13:48:41.835Z,99720.31
2023-03-13T13:49:58.973Z,99721.56
2023-03-13T13:51:15.191Z,99727.69
2023-03-13T13:52:31.731Z,99726.16
2023-03-13T13:53:57.737Z,99738.38
2023-03-13T13:55:01.065Z,99721.69
2023-03-13T13:56:25.186Z,99720.03
2023-03-13T13:57:36.032Z,99726.69
2023-03-13T13:58:44.605Z,99740.72
2023-03-13T13:59:52.252Z,99731.63
2023-03-13T14:00:56.742Z,99736.53
2023-03-13T14:02:04.468Z,99726.94
2023-03-13T14:03:19.356Z,99721.63
2023-03-13T14:04:30.401Z,99730.78
2023-03-13T14:05:33.637Z,99740.63
2023-03-13T14:06:39.148Z,99741.22
2023-03-13T14:07:41.460Z,99746.22
2023-03-13T14:08:46.695Z,99734.75
2023-03-13T14:09:52.424Z,99738.41
2023-03-13T14:11:40.314Z,99739.72
2023-03-13T14:12:51.958Z,99738.47
2023-03-13T14:14:20.076Z,99751.09
2023-03-13T14:15:28.800Z,99744.97
2023-03-13T14:16:31.748Z,99754.84
2023-03-13T14:17:53.987Z,99747.06
2023-03-13T14:18:56.294Z,99755.97
2023-03-13T14:20:00.896Z,99763.06
2023-03-13T14:21:13.586Z,99759.81
2023-03-13T14:22:17.847Z,99753.81
2023-03-13T14:23:57.524Z,99755.28
2023-03-13T14:24:59.812Z,99755.53
2023-03-13T14:26:24.987Z,99750.91
2023-03-13T14:27:27.653Z,99748.41
2023-03-13T14:28:30.683Z,99757.84
2023-03-13T14:29:34.993Z,99754.00
2023-03-13T14:30:44.368Z,99765.78
2023-03-13T14:31:59.873Z,99759.34
2023-03-13T14:33:02.170Z,99761.88
2023-03-13T14:34:12.904Z,99758.56
2023-03-13T14:35:19.610Z,99768.66
2023-03-13T14:36:23.216Z,99759.91
2023-03-13T14:37:42.327Z,99768.94
2023-03-13T14:39:01.492Z,99761.13
2023-03-13T14:40:19.599Z,99759.81
2023-03-13T14:41:48.798Z,99768.09
2023-03-13T14:42:53.527Z,99762.00
2023-03-13T14:44:06.864Z,99775.13
2023-03-13T14:45:36.131Z,99765.78
2023-03-13T14:46:42.248Z,99775.59
2023-03-13T14:47:44.398Z,99779.28
2023-03-13T14:48:47.654Z,99785.59
2023-03-13T14:49:57.234Z,99777.56
2023-03-13T14:51:15.866Z,99780.91
2023-03-13T14:52:23.881Z,99778.34
2023-03-13T14:53:27.802Z,99782.25
2023-03-13T14:54:53.080Z,99785.91
2023-03-13T14:56:13.065Z,99782.19
2023-03-13T14:57:25.446Z,99789.94
2023-03-13T14:58:30.648Z,99781.69
2023-03-13T14:59:33.479Z,99793.44
2023-03-13T15:00:42.755Z,99788.31
2023-03-13T15:01:46.033Z,99793.50
2023-03-13T15:02:48.476Z,99792.16
2023-03-13T15:03:52.501Z,99793.50
2023-03-13T15:05:11.960Z,99793.94
2023-03-13T15:06:22.013Z,99799.28
2023-03-13T15:07:27.428Z,99794.00
2023-03-13T15:08:30.955Z,99789.09
2023-03-13T15:09:42.708Z,99798.22
2023-03-13T15:10:46.894Z,99788.72
2023-03-13T15:11:59.859Z,99797.34
2023-03-13T15:13:34.318Z,99790.97
2023-03-13T15:14:42.394Z,99805.50
2023-03-13T15:15:47.994Z,99792.19
2023-03-13T15:16:50.477Z,99801.66
2023-03-13T15:17:52.723Z,99798.00
2023-03-13T15:18:56.356Z,99805.13
2023-03-13T15:19:59.449Z,99806.22
2023-03-13T15:21:13.422Z,99798.38
2023-03-13T15:22:17.347Z,99801.41
2023-03-13T15:23:21.059Z,99801.13
2023-03-13T15:24:24.759Z,99807.22
2023-03-13T15:25:29.290Z,99799.69
2023-03-13T15:26:31.375Z,99806.28
2023-03-13T15:27:33.861Z,99809.03
2023-03-13T15:28:36.206Z,99808.38
2023-03-13T15:29:38.500Z,99807.91
2023-03-13T15:30:41.034Z,99817.38
2023-03-13T15:31:44.217Z,99812.56
2023-03-13T15:32:47.313Z,99809.06
2023-03-13T15:33:54.923Z,99806.63
2023-03-13T15:35:02.176Z,99810.34
2023-03-13T15:36:04.671Z,99814.00
2023-03-13T15:37:11.977Z,99816.22
2023-03-13T15:38:18.042Z,99821.22
2023-03-13T15:39:20.892Z,99821.22
2023-03-13T15:40:24.564Z,99816.41
2023-03-13T15:41:26.574Z,99815.63
2023-03-13T15:42:28.671Z,99812.06
2023-03-13T15:43:31.323Z,99817.06
2023-03-13T15:44:33.353Z,99818.50
2023-03-13T15:45:37.821Z,99817.84
2023-03-13T15:46:40.047Z,99821.69
2023-03-13T15:47:42.075Z,99822.16
2023-03-13T15:48:44.068Z,99824.22
2023-03-13T15:49:46.396Z,99823.91
2023-03-13T15:50:52.904Z,99819.44
2023-03-13T15:51:57.418Z,99824.53
2023-03-13T15:53:04.165Z,99838.13
2023-03-13T15:54:06.603Z,99832.69
2023-03-13T15:55:10.220Z,99838.75
2023-03-13T15:56:18.150Z,99837.81
2023-03-13T15:57:24.201Z,99845.97
2023-03-13T15:58:29.744Z,99838.28
2023-03-13T15:59:31.686Z,99848.19
2023-03-13T16:00:33.909Z,99849.63
2023-03-13T16:01:35.877Z,99839.09
2023-03-13T16:02:38.040Z,99844.19
2023-03-13T16:03:40.976Z,99845.47
2023-03-13T16:04:44.107Z,99850.13